Aérodrome :
LOGIN :

S'inscrire | Disclaimer

   EN    FR    IT 

 










Légende :    VFR   VFR Marginal   IFR   IFR Intensif   IFR Très Intensif
Visi : 
Plafond : 
>= 8 km
>= 3000ft
5 à 8 km
1000 à 3000 ft
1500m à 5 km
500 à 1000 ft
800 à 1500m
200 à 500 ft
< 800m
< 200 ft
Symboles :   Orages  Brouillard  Fortes neiges  Fortes précipitations  Vent > 20 kt
SIGMETs :   Divers  Orages  Givrage  Turbulence  Onde Orograph.  Cendres Volcan.






- Altitude de l'aérodrome : 62 ft
- Code IATA : TAN


GMTT - Tanger Ibn Batouta

DERNIER METAR :
  • 250200Z 08022KT CAVOK 20/14 Q1019 NOSIG

METARs EXPIRÉS :
  • 250130Z AUTO 07025G39KT CAVOK 21/14 Q1019 NOSIG
  • 250100Z 07028KT CAVOK 21/14 Q1019 NOSIG
  • 250030Z AUTO 07027G38KT CAVOK 21/13 Q1020 NOSIG
  • 250000Z 07028KT CAVOK 21/13 Q1020 NOSIG
  • 242330Z AUTO 07023KT CAVOK 21/13 Q1020 NOSIG

TAF TAF GMTT
Valide du 25 à 00h jusqu'au 26 à 06h UTC


242300Z 2500/2606 08028G40KT CAVOK



MET'MAP, la Météo Aéronautique d'un coup d'oeil ! - Copyright ORBIFLY Décembre 2007 - Disclaimer

ORBIFLY MET'MAP TEAM :

Programmation & Développement : Alexandra Zaïnal
Sur une idée originale de : Baudouin d'Aumeries
Assistance à la programmation : Marc-Olivier Méhu
Soutien technique & logistique : Manuel Goepfert

Contact : metmap@orbifly.com




SOURCES & CREDITS :

   NOAA